sensor_id;sensor_type;location;lat;lon;timestamp;P1;durP1;ratioP1;P2;durP2;ratioP2
30862;SDS011;17573;55.922;37.540;2022-09-03T00:11:02;11.13;;;5.18;;
30862;SDS011;17573;55.922;37.540;2022-09-03T00:14:03;9.57;;;4.97;;
30862;SDS011;17573;55.922;37.540;2022-09-03T00:17:11;7.28;;;5.00;;
30862;SDS011;17573;55.922;37.540;2022-09-03T00:22:41;7.72;;;4.80;;
30862;SDS011;17573;55.922;37.540;2022-09-03T00:25:26;9.63;;;4.82;;
30862;SDS011;17573;55.922;37.540;2022-09-03T00:28:19;12.70;;;4.72;;
30862;SDS011;17573;55.922;37.540;2022-09-03T00:33:57;6.53;;;4.28;;
30862;SDS011;17573;55.922;37.540;2022-09-03T00:36:42;5.55;;;4.32;;
30862;SDS011;17573;55.922;37.540;2022-09-03T00:39:29;7.82;;;4.80;;
30862;SDS011;17573;55.922;37.540;2022-09-03T00:53:56;7.22;;;4.57;;
30862;SDS011;17573;55.922;37.540;2022-09-03T01:20:39;6.15;;;4.43;;
30862;SDS011;17573;55.922;37.540;2022-09-03T01:23:26;7.30;;;4.40;;
30862;SDS011;17573;55.922;37.540;2022-09-03T01:29:22;4.72;;;3.72;;
30862;SDS011;17573;55.922;37.540;2022-09-03T01:32:13;4.18;;;3.67;;
30862;SDS011;17573;55.922;37.540;2022-09-03T01:41:04;7.70;;;4.80;;
30862;SDS011;17573;55.922;37.540;2022-09-03T01:56:53;4.88;;;3.50;;
30862;SDS011;17573;55.922;37.540;2022-09-03T02:03:00;6.00;;;3.63;;
30862;SDS011;17573;55.922;37.540;2022-09-03T02:05:43;5.97;;;3.63;;
30862;SDS011;17573;55.922;37.540;2022-09-03T02:08:30;4.55;;;3.70;;
30862;SDS011;17573;55.922;37.540;2022-09-03T02:11:09;4.20;;;3.67;;
30862;SDS011;17573;55.922;37.540;2022-09-03T02:13:55;8.27;;;3.92;;
30862;SDS011;17573;55.922;37.540;2022-09-03T02:16:37;3.95;;;3.58;;
30862;SDS011;17573;55.922;37.540;2022-09-03T02:19:25;4.03;;;3.10;;
30862;SDS011;17573;55.922;37.540;2022-09-03T02:22:05;3.90;;;3.28;;
30862;SDS011;17573;55.922;37.540;2022-09-03T02:24:51;10.35;;;3.67;;
30862;SDS011;17573;55.922;37.540;2022-09-03T02:27:30;10.15;;;3.78;;
30862;SDS011;17573;55.922;37.540;2022-09-03T02:30:16;4.70;;;3.30;;
30862;SDS011;17573;55.922;37.540;2022-09-03T02:32:56;6.78;;;3.45;;
30862;SDS011;17573;55.922;37.540;2022-09-03T02:35:43;7.35;;;3.97;;
30862;SDS011;17573;55.922;37.540;2022-09-03T02:38:24;7.93;;;4.25;;
30862;SDS011;17573;55.922;37.540;2022-09-03T02:41:10;4.03;;;3.63;;
30862;SDS011;17573;55.922;37.540;2022-09-03T02:47:05;7.35;;;3.65;;
30862;SDS011;17573;55.922;37.540;2022-09-03T02:49:44;7.13;;;3.35;;
30862;SDS011;17573;55.922;37.540;2022-09-03T02:52:32;8.75;;;3.70;;
30862;SDS011;17573;55.922;37.540;2022-09-03T02:55:11;5.03;;;3.38;;
30862;SDS011;17573;55.922;37.540;2022-09-03T02:57:57;9.25;;;3.58;;
30862;SDS011;17573;55.922;37.540;2022-09-03T03:00:37;4.90;;;3.63;;
30862;SDS011;17573;55.922;37.540;2022-09-03T03:03:23;9.15;;;3.30;;
30862;SDS011;17573;55.922;37.540;2022-09-03T03:06:03;3.55;;;3.00;;
30862;SDS011;17573;55.922;37.540;2022-09-03T03:08:51;5.43;;;3.78;;
30862;SDS011;17573;55.922;37.540;2022-09-03T03:11:34;6.05;;;3.75;;
30862;SDS011;17573;55.922;37.540;2022-09-03T03:14:20;11.18;;;3.97;;
30862;SDS011;17573;55.922;37.540;2022-09-03T03:17:00;9.65;;;3.80;;
30862;SDS011;17573;55.922;37.540;2022-09-03T03:19:46;7.43;;;4.13;;
30862;SDS011;17573;55.922;37.540;2022-09-03T03:22:26;5.45;;;3.70;;
30862;SDS011;17573;55.922;37.540;2022-09-03T03:25:12;4.18;;;3.63;;
30862;SDS011;17573;55.922;37.540;2022-09-03T03:27:53;3.50;;;3.22;;
30862;SDS011;17573;55.922;37.540;2022-09-03T03:30:39;3.95;;;3.63;;
30862;SDS011;17573;55.922;37.540;2022-09-03T03:33:20;6.60;;;3.90;;
30862;SDS011;17573;55.922;37.540;2022-09-03T03:36:07;7.43;;;3.40;;
30862;SDS011;17573;55.922;37.540;2022-09-03T03:38:55;5.28;;;4.43;;
30862;SDS011;17573;55.922;37.540;2022-09-03T03:41:42;13.90;;;3.53;;
30862;SDS011;17573;55.922;37.540;2022-09-03T03:44:21;5.45;;;3.45;;
30862;SDS011;17573;55.922;37.540;2022-09-03T03:47:07;10.70;;;4.13;;
30862;SDS011;17573;55.922;37.540;2022-09-03T03:49:46;4.68;;;3.75;;
30862;SDS011;17573;55.922;37.540;2022-09-03T03:52:32;3.67;;;3.35;;
30862;SDS011;17573;55.922;37.540;2022-09-03T03:55:11;5.28;;;3.03;;
30862;SDS011;17573;55.922;37.540;2022-09-03T03:57:57;8.18;;;4.05;;
30862;SDS011;17573;55.922;37.540;2022-09-03T04:00:36;4.47;;;3.75;;
30862;SDS011;17573;55.922;37.540;2022-09-03T04:03:22;6.57;;;4.88;;
30862;SDS011;17573;55.922;37.540;2022-09-03T04:06:01;7.78;;;4.85;;
30862;SDS011;17573;55.922;37.540;2022-09-03T04:08:48;6.78;;;4.68;;
30862;SDS011;17573;55.922;37.540;2022-09-03T04:11:27;10.85;;;4.72;;
30862;SDS011;17573;55.922;37.540;2022-09-03T04:14:13;9.98;;;4.75;;
30862;SDS011;17573;55.922;37.540;2022-09-03T04:16:53;6.25;;;4.68;;
30862;SDS011;17573;55.922;37.540;2022-09-03T04:19:39;11.40;;;4.38;;
30862;SDS011;17573;55.922;37.540;2022-09-03T04:22:18;6.10;;;4.82;;
30862;SDS011;17573;55.922;37.540;2022-09-03T04:25:04;9.88;;;4.95;;
30862;SDS011;17573;55.922;37.540;2022-09-03T04:27:43;7.28;;;4.57;;
30862;SDS011;17573;55.922;37.540;2022-09-03T04:30:29;6.63;;;4.20;;
30862;SDS011;17573;55.922;37.540;2022-09-03T04:33:08;5.60;;;4.22;;
30862;SDS011;17573;55.922;37.540;2022-09-03T04:36:01;6.57;;;5.00;;
30862;SDS011;17573;55.922;37.540;2022-09-03T04:38:44;5.00;;;3.83;;
30862;SDS011;17573;55.922;37.540;2022-09-03T04:41:32;11.48;;;5.07;;
30862;SDS011;17573;55.922;37.540;2022-09-03T04:44:11;9.30;;;4.85;;
30862;SDS011;17573;55.922;37.540;2022-09-03T04:46:57;6.43;;;4.53;;
30862;SDS011;17573;55.922;37.540;2022-09-03T04:49:36;7.57;;;3.65;;
30862;SDS011;17573;55.922;37.540;2022-09-03T04:52:22;5.53;;;3.45;;
30862;SDS011;17573;55.922;37.540;2022-09-03T04:55:01;4.60;;;4.07;;
30862;SDS011;17573;55.922;37.540;2022-09-03T04:57:48;5.80;;;3.65;;
30862;SDS011;17573;55.922;37.540;2022-09-03T05:00:28;6.30;;;4.70;;
30862;SDS011;17573;55.922;37.540;2022-09-03T05:03:14;6.40;;;3.90;;
30862;SDS011;17573;55.922;37.540;2022-09-03T05:05:56;4.53;;;3.92;;
30862;SDS011;17573;55.922;37.540;2022-09-03T05:08:46;5.30;;;3.75;;
30862;SDS011;17573;55.922;37.540;2022-09-03T05:11:26;10.38;;;3.28;;
30862;SDS011;17573;55.922;37.540;2022-09-03T05:14:13;6.07;;;2.83;;
30862;SDS011;17573;55.922;37.540;2022-09-03T05:16:52;4.07;;;3.17;;
30862;SDS011;17573;55.922;37.540;2022-09-03T05:19:38;4.20;;;3.25;;
30862;SDS011;17573;55.922;37.540;2022-09-03T05:22:18;7.20;;;3.13;;
30862;SDS011;17573;55.922;37.540;2022-09-03T05:25:04;6.65;;;2.78;;
30862;SDS011;17573;55.922;37.540;2022-09-03T05:27:44;3.50;;;2.38;;
30862;SDS011;17573;55.922;37.540;2022-09-03T05:30:31;7.68;;;2.67;;
30862;SDS011;17573;55.922;37.540;2022-09-03T05:33:10;6.10;;;2.70;;
30862;SDS011;17573;55.922;37.540;2022-09-03T05:36:03;4.88;;;2.72;;
30862;SDS011;17573;55.922;37.540;2022-09-03T05:41:29;6.40;;;3.30;;
30862;SDS011;17573;55.922;37.540;2022-09-03T05:44:10;3.20;;;2.60;;
30862;SDS011;17573;55.922;37.540;2022-09-03T05:46:56;3.22;;;2.38;;
30862;SDS011;17573;55.922;37.540;2022-09-03T05:49:35;5.88;;;2.08;;
30862;SDS011;17573;55.922;37.540;2022-09-03T05:52:21;2.97;;;2.45;;
30862;SDS011;17573;55.922;37.540;2022-09-03T05:55:01;9.88;;;5.13;;
30862;SDS011;17573;55.922;37.540;2022-09-03T05:57:51;4.07;;;2.72;;
30862;SDS011;17573;55.922;37.540;2022-09-03T06:00:30;3.63;;;2.45;;
30862;SDS011;17573;55.922;37.540;2022-09-03T06:03:16;6.35;;;2.63;;
30862;SDS011;17573;55.922;37.540;2022-09-03T06:05:55;2.50;;;2.30;;
30862;SDS011;17573;55.922;37.540;2022-09-03T06:08:42;9.77;;;2.70;;
30862;SDS011;17573;55.922;37.540;2022-09-03T06:11:23;5.82;;;2.60;;
30862;SDS011;17573;55.922;37.540;2022-09-03T06:14:11;2.75;;;2.53;;
30862;SDS011;17573;55.922;37.540;2022-09-03T06:16:51;6.30;;;2.47;;
30862;SDS011;17573;55.922;37.540;2022-09-03T06:19:37;3.65;;;2.28;;
30862;SDS011;17573;55.922;37.540;2022-09-03T06:22:16;6.65;;;3.00;;
30862;SDS011;17573;55.922;37.540;2022-09-03T06:25:05;2.10;;;1.83;;
30862;SDS011;17573;55.922;37.540;2022-09-03T06:27:47;6.80;;;1.98;;
30862;SDS011;17573;55.922;37.540;2022-09-03T06:30:33;3.17;;;1.95;;
30862;SDS011;17573;55.922;37.540;2022-09-03T06:33:13;2.90;;;2.03;;
30862;SDS011;17573;55.922;37.540;2022-09-03T06:36:02;3.35;;;2.20;;
30862;SDS011;17573;55.922;37.540;2022-09-03T06:38:42;14.98;;;3.05;;
30862;SDS011;17573;55.922;37.540;2022-09-03T06:41:30;18.58;;;3.08;;
30862;SDS011;17573;55.922;37.540;2022-09-03T06:44:10;13.13;;;2.92;;
30862;SDS011;17573;55.922;37.540;2022-09-03T06:46:56;12.27;;;2.50;;
30862;SDS011;17573;55.922;37.540;2022-09-03T06:49:38;2.90;;;2.30;;
30862;SDS011;17573;55.922;37.540;2022-09-03T06:52:24;6.45;;;2.83;;
30862;SDS011;17573;55.922;37.540;2022-09-03T06:55:04;3.50;;;2.10;;
30862;SDS011;17573;55.922;37.540;2022-09-03T06:57:54;2.05;;;1.73;;
30862;SDS011;17573;55.922;37.540;2022-09-03T07:00:53;1.77;;;1.67;;
30862;SDS011;17573;55.922;37.540;2022-09-03T07:03:40;2.20;;;1.90;;
30862;SDS011;17573;55.922;37.540;2022-09-03T07:06:21;8.45;;;2.40;;
30862;SDS011;17573;55.922;37.540;2022-09-03T07:09:10;3.05;;;2.20;;
30862;SDS011;17573;55.922;37.540;2022-09-03T07:11:49;3.33;;;1.80;;
30862;SDS011;17573;55.922;37.540;2022-09-03T07:14:35;5.03;;;1.67;;
30862;SDS011;17573;55.922;37.540;2022-09-03T07:17:14;5.82;;;2.30;;
30862;SDS011;17573;55.922;37.540;2022-09-03T07:20:00;7.68;;;1.90;;
30862;SDS011;17573;55.922;37.540;2022-09-03T07:22:39;4.75;;;1.63;;
30862;SDS011;17573;55.922;37.540;2022-09-03T07:25:25;2.55;;;1.92;;
30862;SDS011;17573;55.922;37.540;2022-09-03T07:28:04;2.03;;;1.67;;
30862;SDS011;17573;55.922;37.540;2022-09-03T07:30:51;6.20;;;1.80;;
30862;SDS011;17573;55.922;37.540;2022-09-03T07:33:30;6.63;;;1.77;;
30862;SDS011;17573;55.922;37.540;2022-09-03T07:36:16;7.72;;;1.77;;
30862;SDS011;17573;55.922;37.540;2022-09-03T07:38:56;1.77;;;1.67;;
30862;SDS011;17573;55.922;37.540;2022-09-03T07:41:42;6.18;;;1.88;;
30862;SDS011;17573;55.922;37.540;2022-09-03T07:44:23;6.28;;;1.85;;
30862;SDS011;17573;55.922;37.540;2022-09-03T07:47:09;2.47;;;1.70;;
30862;SDS011;17573;55.922;37.540;2022-09-03T07:49:48;4.35;;;1.63;;
30862;SDS011;17573;55.922;37.540;2022-09-03T07:52:35;3.20;;;1.52;;
30862;SDS011;17573;55.922;37.540;2022-09-03T07:55:14;3.05;;;1.90;;
30862;SDS011;17573;55.922;37.540;2022-09-03T07:58:00;1.77;;;1.50;;
30862;SDS011;17573;55.922;37.540;2022-09-03T08:00:39;3.90;;;1.85;;
30862;SDS011;17573;55.922;37.540;2022-09-03T08:03:26;2.92;;;1.80;;
30862;SDS011;17573;55.922;37.540;2022-09-03T08:06:06;20.02;;;3.35;;
30862;SDS011;17573;55.922;37.540;2022-09-03T08:08:56;7.25;;;1.92;;
30862;SDS011;17573;55.922;37.540;2022-09-03T08:11:45;6.70;;;2.13;;
30862;SDS011;17573;55.922;37.540;2022-09-03T08:14:31;3.35;;;1.65;;
30862;SDS011;17573;55.922;37.540;2022-09-03T08:17:10;6.05;;;1.63;;
30862;SDS011;17573;55.922;37.540;2022-09-03T08:19:56;2.08;;;1.67;;
30862;SDS011;17573;55.922;37.540;2022-09-03T08:22:36;3.00;;;1.48;;
30862;SDS011;17573;55.922;37.540;2022-09-03T08:25:22;4.03;;;1.40;;
30862;SDS011;17573;55.922;37.540;2022-09-03T08:28:01;1.20;;;1.10;;
30862;SDS011;17573;55.922;37.540;2022-09-03T08:30:47;5.60;;;1.80;;
30862;SDS011;17573;55.922;37.540;2022-09-03T08:33:26;4.85;;;1.50;;
30862;SDS011;17573;55.922;37.540;2022-09-03T08:36:18;2.50;;;1.13;;
30862;SDS011;17573;55.922;37.540;2022-09-03T08:39:05;1.45;;;1.23;;
30862;SDS011;17573;55.922;37.540;2022-09-03T08:44:54;2.30;;;1.20;;
30862;SDS011;17573;55.922;37.540;2022-09-03T08:47:43;2.33;;;1.30;;
30862;SDS011;17573;55.922;37.540;2022-09-03T08:50:30;3.92;;;1.20;;
30862;SDS011;17573;55.922;37.540;2022-09-03T08:53:23;4.00;;;1.20;;
30862;SDS011;17573;55.922;37.540;2022-09-03T08:56:17;1.13;;;1.10;;
30862;SDS011;17573;55.922;37.540;2022-09-03T08:59:08;1.88;;;1.35;;
30862;SDS011;17573;55.922;37.540;2022-09-03T09:07:29;3.63;;;1.17;;
30862;SDS011;17573;55.922;37.540;2022-09-03T09:10:32;3.45;;;1.15;;
30862;SDS011;17573;55.922;37.540;2022-09-03T09:19:20;2.42;;;1.27;;
30862;SDS011;17573;55.922;37.540;2022-09-03T09:22:08;1.90;;;1.05;;
30862;SDS011;17573;55.922;37.540;2022-09-03T09:24:50;2.17;;;1.20;;
30862;SDS011;17573;55.922;37.540;2022-09-03T09:27:45;4.88;;;1.52;;
30862;SDS011;17573;55.922;37.540;2022-09-03T09:30:30;2.13;;;1.60;;
30862;SDS011;17573;55.922;37.540;2022-09-03T09:33:17;4.15;;;1.55;;
30862;SDS011;17573;55.922;37.540;2022-09-03T09:35:58;2.35;;;1.42;;
30862;SDS011;17573;55.922;37.540;2022-09-03T09:38:45;5.18;;;1.55;;
30862;SDS011;17573;55.922;37.540;2022-09-03T09:41:25;1.92;;;1.33;;
30862;SDS011;17573;55.922;37.540;2022-09-03T09:44:18;1.70;;;1.33;;
30862;SDS011;17573;55.922;37.540;2022-09-03T09:47:06;5.38;;;1.70;;
30862;SDS011;17573;55.922;37.540;2022-09-03T09:49:59;3.28;;;1.60;;
30862;SDS011;17573;55.922;37.540;2022-09-03T09:52:39;3.05;;;2.10;;
30862;SDS011;17573;55.922;37.540;2022-09-03T09:55:25;8.07;;;2.08;;
30862;SDS011;17573;55.922;37.540;2022-09-03T09:58:06;3.70;;;1.70;;
30862;SDS011;17573;55.922;37.540;2022-09-03T10:01:03;5.78;;;1.95;;
30862;SDS011;17573;55.922;37.540;2022-09-03T10:03:54;1.63;;;1.33;;
30862;SDS011;17573;55.922;37.540;2022-09-03T10:06:41;4.45;;;1.70;;
30862;SDS011;17573;55.922;37.540;2022-09-03T10:09:36;2.15;;;1.45;;
30862;SDS011;17573;55.922;37.540;2022-09-03T10:21:11;3.45;;;1.60;;
30862;SDS011;17573;55.922;37.540;2022-09-03T10:27:08;1.65;;;1.40;;
30862;SDS011;17573;55.922;37.540;2022-09-03T10:29:57;1.38;;;1.13;;
30862;SDS011;17573;55.922;37.540;2022-09-03T10:35:43;2.25;;;1.83;;
30862;SDS011;17573;55.922;37.540;2022-09-03T10:38:30;4.55;;;1.45;;
30862;SDS011;17573;55.922;37.540;2022-09-03T10:42:31;4.32;;;1.20;;
30862;SDS011;17573;55.922;37.540;2022-09-03T10:48:00;2.97;;;1.60;;
30862;SDS011;17573;55.922;37.540;2022-09-03T11:00:00;3.95;;;1.35;;
30862;SDS011;17573;55.922;37.540;2022-09-03T11:06:27;1.65;;;1.30;;
30862;SDS011;17573;55.922;37.540;2022-09-03T11:08:54;6.50;;;1.45;;
30862;SDS011;17573;55.922;37.540;2022-09-03T11:11:59;1.50;;;1.40;;
30862;SDS011;17573;55.922;37.540;2022-09-03T11:14:49;2.80;;;1.20;;
30862;SDS011;17573;55.922;37.540;2022-09-03T11:20:48;3.00;;;1.63;;
30862;SDS011;17573;55.922;37.540;2022-09-03T11:23:41;12.85;;;1.42;;
30862;SDS011;17573;55.922;37.540;2022-09-03T11:26:21;27.58;;;9.35;;
30862;SDS011;17573;55.922;37.540;2022-09-03T11:29:13;5.35;;;1.90;;
30862;SDS011;17573;55.922;37.540;2022-09-03T11:32:51;7.38;;;2.38;;
30862;SDS011;17573;55.922;37.540;2022-09-03T11:44:16;7.10;;;2.13;;
30862;SDS011;17573;55.922;37.540;2022-09-03T11:47:12;5.53;;;2.30;;
30862;SDS011;17573;55.922;37.540;2022-09-03T11:50:03;3.72;;;2.47;;
30862;SDS011;17573;55.922;37.540;2022-09-03T11:53:21;6.10;;;2.70;;
30862;SDS011;17573;55.922;37.540;2022-09-03T12:04:53;9.07;;;1.92;;
30862;SDS011;17573;55.922;37.540;2022-09-03T12:19:44;1.75;;;1.40;;
30862;SDS011;17573;55.922;37.540;2022-09-03T12:22:40;2.13;;;1.35;;
30862;SDS011;17573;55.922;37.540;2022-09-03T12:25:19;7.47;;;1.50;;
30862;SDS011;17573;55.922;37.540;2022-09-03T12:28:10;3.80;;;1.10;;
30862;SDS011;17573;55.922;37.540;2022-09-03T12:30:51;3.75;;;1.17;;
30862;SDS011;17573;55.922;37.540;2022-09-03T12:33:39;6.13;;;1.40;;
30862;SDS011;17573;55.922;37.540;2022-09-03T12:36:20;1.98;;;1.30;;
30862;SDS011;17573;55.922;37.540;2022-09-03T12:39:11;4.50;;;1.55;;
30862;SDS011;17573;55.922;37.540;2022-09-03T12:44:45;3.13;;;1.67;;
30862;SDS011;17573;55.922;37.540;2022-09-03T12:47:24;7.35;;;1.50;;
30862;SDS011;17573;55.922;37.540;2022-09-03T12:50:12;2.53;;;1.50;;
30862;SDS011;17573;55.922;37.540;2022-09-03T12:55:45;6.72;;;1.30;;
30862;SDS011;17573;55.922;37.540;2022-09-03T12:58:35;6.38;;;1.75;;
30862;SDS011;17573;55.922;37.540;2022-09-03T13:01:28;6.85;;;1.77;;
30862;SDS011;17573;55.922;37.540;2022-09-03T13:04:11;1.50;;;1.33;;
30862;SDS011;17573;55.922;37.540;2022-09-03T13:09:43;1.90;;;1.02;;
30862;SDS011;17573;55.922;37.540;2022-09-03T13:12:42;4.57;;;2.15;;
30862;SDS011;17573;55.922;37.540;2022-09-03T13:15:27;4.55;;;2.13;;
30862;SDS011;17573;55.922;37.540;2022-09-03T13:18:24;2.55;;;1.38;;
30862;SDS011;17573;55.922;37.540;2022-09-03T13:21:40;2.42;;;1.27;;
30862;SDS011;17573;55.922;37.540;2022-09-03T13:30:51;5.50;;;1.90;;
30862;SDS011;17573;55.922;37.540;2022-09-03T13:33:42;2.13;;;1.42;;
30862;SDS011;17573;55.922;37.540;2022-09-03T13:36:33;5.95;;;2.83;;
30862;SDS011;17573;55.922;37.540;2022-09-03T13:39:27;1.48;;;1.25;;
30862;SDS011;17573;55.922;37.540;2022-09-03T13:42:17;5.13;;;1.92;;
30862;SDS011;17573;55.922;37.540;2022-09-03T13:48:14;3.20;;;2.10;;
30862;SDS011;17573;55.922;37.540;2022-09-03T13:57:26;1.98;;;1.77;;
30862;SDS011;17573;55.922;37.540;2022-09-03T14:00:21;4.88;;;1.50;;
30862;SDS011;17573;55.922;37.540;2022-09-03T14:09:13;3.15;;;2.13;;
30862;SDS011;17573;55.922;37.540;2022-09-03T14:12:13;2.28;;;1.40;;
30862;SDS011;17573;55.922;37.540;2022-09-03T14:15:23;3.88;;;1.70;;
30862;SDS011;17573;55.922;37.540;2022-09-03T14:21:21;4.20;;;1.90;;
30862;SDS011;17573;55.922;37.540;2022-09-03T14:26:55;3.95;;;2.03;;
30862;SDS011;17573;55.922;37.540;2022-09-03T14:29:52;2.97;;;2.05;;
30862;SDS011;17573;55.922;37.540;2022-09-03T14:32:27;4.80;;;2.20;;
30862;SDS011;17573;55.922;37.540;2022-09-03T15:00:15;4.15;;;3.53;;
30862;SDS011;17573;55.922;37.540;2022-09-03T15:06:13;4.97;;;3.20;;
30862;SDS011;17573;55.922;37.540;2022-09-03T15:14:55;7.75;;;2.25;;
30862;SDS011;17573;55.922;37.540;2022-09-03T15:20:49;8.75;;;2.60;;
30862;SDS011;17573;55.922;37.540;2022-09-03T15:32:31;3.47;;;1.83;;
30862;SDS011;17573;55.922;37.540;2022-09-03T15:44:22;10.80;;;2.78;;
30862;SDS011;17573;55.922;37.540;2022-09-03T15:47:36;8.20;;;2.78;;
30862;SDS011;17573;55.922;37.540;2022-09-03T15:50:16;12.55;;;3.15;;
30862;SDS011;17573;55.922;37.540;2022-09-03T15:59:50;10.38;;;3.05;;
30862;SDS011;17573;55.922;37.540;2022-09-03T16:02:16;4.75;;;2.78;;
30862;SDS011;17573;55.922;37.540;2022-09-03T16:20:03;12.63;;;2.28;;
30862;SDS011;17573;55.922;37.540;2022-09-03T16:25:34;6.47;;;3.28;;
30862;SDS011;17573;55.922;37.540;2022-09-03T16:28:58;12.02;;;4.10;;
30862;SDS011;17573;55.922;37.540;2022-09-03T16:38:10;9.18;;;4.57;;
30862;SDS011;17573;55.922;37.540;2022-09-03T16:43:58;25.42;;;5.10;;
30862;SDS011;17573;55.922;37.540;2022-09-03T16:47:32;19.05;;;6.13;;
30862;SDS011;17573;55.922;37.540;2022-09-03T16:56:45;18.98;;;5.03;;
30862;SDS011;17573;55.922;37.540;2022-09-03T17:02:47;8.10;;;4.63;;
30862;SDS011;17573;55.922;37.540;2022-09-03T17:06:07;10.95;;;5.55;;
30862;SDS011;17573;55.922;37.540;2022-09-03T17:14:46;14.23;;;6.00;;
30862;SDS011;17573;55.922;37.540;2022-09-03T17:30:27;6.47;;;3.70;;
30862;SDS011;17573;55.922;37.540;2022-09-03T17:33:22;13.70;;;4.70;;
30862;SDS011;17573;55.922;37.540;2022-09-03T17:36:22;13.48;;;4.25;;
30862;SDS011;17573;55.922;37.540;2022-09-03T17:42:26;7.72;;;3.60;;
30862;SDS011;17573;55.922;37.540;2022-09-03T17:45:35;8.73;;;3.75;;
30862;SDS011;17573;55.922;37.540;2022-09-03T17:54:42;8.13;;;3.00;;
30862;SDS011;17573;55.922;37.540;2022-09-03T17:57:22;5.93;;;4.20;;
30862;SDS011;17573;55.922;37.540;2022-09-03T18:03:17;9.10;;;5.80;;
30862;SDS011;17573;55.922;37.540;2022-09-03T18:12:32;11.15;;;5.35;;
30862;SDS011;17573;55.922;37.540;2022-09-03T18:15:14;16.00;;;8.15;;
30862;SDS011;17573;55.922;37.540;2022-09-03T18:21:04;13.38;;;5.35;;
30862;SDS011;17573;55.922;37.540;2022-09-03T18:27:28;9.23;;;4.43;;
30862;SDS011;17573;55.922;37.540;2022-09-03T18:30:44;9.70;;;4.15;;
30862;SDS011;17573;55.922;37.540;2022-09-03T18:33:36;12.73;;;4.60;;
30862;SDS011;17573;55.922;37.540;2022-09-03T18:36:46;13.55;;;5.10;;
30862;SDS011;17573;55.922;37.540;2022-09-03T18:39:38;9.27;;;4.03;;
30862;SDS011;17573;55.922;37.540;2022-09-03T18:43:13;12.32;;;5.35;;
30862;SDS011;17573;55.922;37.540;2022-09-03T18:46:05;10.48;;;5.78;;
30862;SDS011;17573;55.922;37.540;2022-09-03T18:49:31;18.55;;;6.35;;
30862;SDS011;17573;55.922;37.540;2022-09-03T18:55:54;14.68;;;5.43;;
30862;SDS011;17573;55.922;37.540;2022-09-03T19:05:29;12.23;;;5.03;;
30862;SDS011;17573;55.922;37.540;2022-09-03T19:09:02;14.35;;;4.28;;
30862;SDS011;17573;55.922;37.540;2022-09-03T19:15:45;20.27;;;5.82;;
30862;SDS011;17573;55.922;37.540;2022-09-03T19:22:35;14.30;;;6.22;;
30862;SDS011;17573;55.922;37.540;2022-09-03T19:25:27;8.38;;;5.32;;
30862;SDS011;17573;55.922;37.540;2022-09-03T19:28:40;17.08;;;5.07;;
30862;SDS011;17573;55.922;37.540;2022-09-03T19:35:22;6.55;;;4.38;;
30862;SDS011;17573;55.922;37.540;2022-09-03T19:41:38;13.10;;;5.28;;
30862;SDS011;17573;55.922;37.540;2022-09-03T19:44:45;20.15;;;4.45;;
30862;SDS011;17573;55.922;37.540;2022-09-03T19:48:23;6.53;;;4.18;;
30862;SDS011;17573;55.922;37.540;2022-09-03T19:51:24;7.75;;;3.28;;
30862;SDS011;17573;55.922;37.540;2022-09-03T19:54:41;9.27;;;4.25;;
30862;SDS011;17573;55.922;37.540;2022-09-03T19:57:33;5.28;;;4.03;;
30862;SDS011;17573;55.922;37.540;2022-09-03T20:00:43;4.15;;;3.42;;
30862;SDS011;17573;55.922;37.540;2022-09-03T20:03:35;6.05;;;4.05;;
30862;SDS011;17573;55.922;37.540;2022-09-03T20:06:46;5.78;;;4.53;;
30862;SDS011;17573;55.922;37.540;2022-09-03T20:09:38;6.57;;;4.10;;
30862;SDS011;17573;55.922;37.540;2022-09-03T20:15:46;14.45;;;7.15;;
30862;SDS011;17573;55.922;37.540;2022-09-03T20:28:36;7.60;;;4.22;;
30862;SDS011;17573;55.922;37.540;2022-09-03T20:34:32;8.20;;;4.57;;
30862;SDS011;17573;55.922;37.540;2022-09-03T20:46:53;12.07;;;5.35;;
30862;SDS011;17573;55.922;37.540;2022-09-03T20:59:22;8.13;;;4.65;;
30862;SDS011;17573;55.922;37.540;2022-09-03T21:23:44;22.02;;;5.60;;
30862;SDS011;17573;55.922;37.540;2022-09-03T21:26:39;10.55;;;6.10;;
30862;SDS011;17573;55.922;37.540;2022-09-03T21:29:54;9.73;;;5.88;;
30862;SDS011;17573;55.922;37.540;2022-09-03T21:35:25;11.30;;;6.77;;
30862;SDS011;17573;55.922;37.540;2022-09-03T21:41:20;12.40;;;6.53;;
30862;SDS011;17573;55.922;37.540;2022-09-03T21:44:40;11.43;;;6.78;;
30862;SDS011;17573;55.922;37.540;2022-09-03T21:47:19;12.02;;;6.80;;
30862;SDS011;17573;55.922;37.540;2022-09-03T21:50:17;9.43;;;6.57;;
30862;SDS011;17573;55.922;37.540;2022-09-03T21:52:54;10.07;;;6.18;;
30862;SDS011;17573;55.922;37.540;2022-09-03T22:02:11;9.30;;;5.57;;
30862;SDS011;17573;55.922;37.540;2022-09-03T22:04:49;10.98;;;6.05;;
30862;SDS011;17573;55.922;37.540;2022-09-03T22:15:56;12.02;;;5.80;;
30862;SDS011;17573;55.922;37.540;2022-09-03T22:18:57;9.05;;;6.47;;
30862;SDS011;17573;55.922;37.540;2022-09-03T22:21:39;16.08;;;6.25;;
30862;SDS011;17573;55.922;37.540;2022-09-03T22:24:52;9.45;;;5.55;;
30862;SDS011;17573;55.922;37.540;2022-09-03T22:31:01;9.85;;;7.25;;
30862;SDS011;17573;55.922;37.540;2022-09-03T22:34:00;10.35;;;6.30;;
30862;SDS011;17573;55.922;37.540;2022-09-03T22:37:12;14.65;;;6.53;;
30862;SDS011;17573;55.922;37.540;2022-09-03T22:39:50;11.82;;;6.72;;
30862;SDS011;17573;55.922;37.540;2022-09-03T22:48:51;10.57;;;6.53;;
30862;SDS011;17573;55.922;37.540;2022-09-03T22:51:29;8.68;;;6.70;;
30862;SDS011;17573;55.922;37.540;2022-09-03T22:57:18;11.40;;;6.38;;
30862;SDS011;17573;55.922;37.540;2022-09-03T23:00:12;11.38;;;6.95;;
30862;SDS011;17573;55.922;37.540;2022-09-03T23:02:46;12.20;;;7.32;;
30862;SDS011;17573;55.922;37.540;2022-09-03T23:05:44;8.60;;;5.85;;
30862;SDS011;17573;55.922;37.540;2022-09-03T23:08:31;13.90;;;6.88;;
30862;SDS011;17573;55.922;37.540;2022-09-03T23:11:30;11.18;;;6.45;;
30862;SDS011;17573;55.922;37.540;2022-09-03T23:14:17;10.65;;;6.30;;
30862;SDS011;17573;55.922;37.540;2022-09-03T23:17:15;11.43;;;6.22;;
30862;SDS011;17573;55.922;37.540;2022-09-03T23:20:39;9.13;;;5.95;;
30862;SDS011;17573;55.922;37.540;2022-09-03T23:23:17;8.25;;;6.03;;
30862;SDS011;17573;55.922;37.540;2022-09-03T23:25:53;8.98;;;5.80;;
30862;SDS011;17573;55.922;37.540;2022-09-03T23:28:58;8.18;;;5.75;;
30862;SDS011;17573;55.922;37.540;2022-09-03T23:31:41;13.10;;;7.20;;
30862;SDS011;17573;55.922;37.540;2022-09-03T23:34:35;10.40;;;5.95;;
30862;SDS011;17573;55.922;37.540;2022-09-03T23:37:13;10.18;;;6.90;;
30862;SDS011;17573;55.922;37.540;2022-09-03T23:43:24;11.40;;;6.38;;
30862;SDS011;17573;55.922;37.540;2022-09-03T23:46:47;7.80;;;6.22;;
30862;SDS011;17573;55.922;37.540;2022-09-03T23:49:37;15.80;;;5.63;;
30862;SDS011;17573;55.922;37.540;2022-09-03T23:58:44;14.52;;;5.85;;
